Terminal Aerodrome Forecast
Issued by NWS Charleston, WV

Current Version | Previous Version | Text Only | Print | Product List | Glossary Off
Versions: 1 2 3 4 5 6 7 8 9 10 11 12 13 14 15 16 17 18 19 20 21 22 23 24 25 26 27 28 29

000
FTUS41 KRLX 121120
TAFBKW
TAF
KBKW 121120Z 1212/1312 28013G20KT P6SM OVC035
     FM121400 29014G24KT 6SM -SHSN OVC015
     FM121600 29014G27KT 3SM -SHSN BLSN BKN008 BKN015
     FM130200 29016G32KT 5SM -SHSN BKN025
     FM130500 30015G28KT P6SM BKN035=

USA.gov is the U.S. government's official web portal to all federal, state and local government web resources and services.